sensor_id;sensor_type;location;lat;lon;timestamp;P1;durP1;ratioP1;P2;durP2;ratioP2
42030;SDS011;27709;52.036;5.906;2022-09-09T00:06:48;3.00;;;1.17;;
42030;SDS011;27709;52.036;5.906;2022-09-09T00:12:42;1.90;;;1.25;;
42030;SDS011;27709;52.036;5.906;2022-09-09T00:15:41;3.08;;;1.65;;
42030;SDS011;27709;52.036;5.906;2022-09-09T00:21:15;2.95;;;1.50;;
42030;SDS011;27709;52.036;5.906;2022-09-09T00:23:50;3.65;;;1.70;;
42030;SDS011;27709;52.036;5.906;2022-09-09T00:27:09;2.97;;;1.90;;
42030;SDS011;27709;52.036;5.906;2022-09-09T00:29:56;3.60;;;1.95;;
42030;SDS011;27709;52.036;5.906;2022-09-09T00:33:00;3.95;;;1.95;;
42030;SDS011;27709;52.036;5.906;2022-09-09T00:35:37;2.53;;;1.65;;
42030;SDS011;27709;52.036;5.906;2022-09-09T00:38:18;2.10;;;1.40;;
42030;SDS011;27709;52.036;5.906;2022-09-09T00:43:42;3.00;;;1.90;;
42030;SDS011;27709;52.036;5.906;2022-09-09T00:53:16;4.05;;;1.75;;
42030;SDS011;27709;52.036;5.906;2022-09-09T00:56:14;2.75;;;1.98;;
42030;SDS011;27709;52.036;5.906;2022-09-09T00:58:52;4.30;;;1.77;;
42030;SDS011;27709;52.036;5.906;2022-09-09T01:01:31;3.85;;;1.77;;
42030;SDS011;27709;52.036;5.906;2022-09-09T01:03:57;3.38;;;1.88;;
42030;SDS011;27709;52.036;5.906;2022-09-09T01:06:31;3.00;;;1.58;;
42030;SDS011;27709;52.036;5.906;2022-09-09T01:12:24;3.03;;;1.70;;
42030;SDS011;27709;52.036;5.906;2022-09-09T01:15:12;3.80;;;1.52;;
42030;SDS011;27709;52.036;5.906;2022-09-09T01:28:26;2.85;;;1.70;;
42030;SDS011;27709;52.036;5.906;2022-09-09T01:30:56;3.58;;;1.30;;
42030;SDS011;27709;52.036;5.906;2022-09-09T01:33:35;3.83;;;1.60;;
42030;SDS011;27709;52.036;5.906;2022-09-09T01:36:16;2.40;;;1.38;;
42030;SDS011;27709;52.036;5.906;2022-09-09T01:38:45;2.75;;;1.40;;
42030;SDS011;27709;52.036;5.906;2022-09-09T01:41:12;2.38;;;1.30;;
42030;SDS011;27709;52.036;5.906;2022-09-09T01:43:38;2.28;;;1.20;;
42030;SDS011;27709;52.036;5.906;2022-09-09T01:46:04;3.13;;;1.20;;
42030;SDS011;27709;52.036;5.906;2022-09-09T01:48:29;2.30;;;1.23;;
42030;SDS011;27709;52.036;5.906;2022-09-09T01:50:56;2.08;;;1.35;;
42030;SDS011;27709;52.036;5.906;2022-09-09T01:53:21;4.32;;;1.30;;
42030;SDS011;27709;52.036;5.906;2022-09-09T01:58:52;2.15;;;1.08;;
42030;SDS011;27709;52.036;5.906;2022-09-09T02:04:17;2.22;;;1.05;;
42030;SDS011;27709;52.036;5.906;2022-09-09T02:07:30;3.05;;;0.95;;
42030;SDS011;27709;52.036;5.906;2022-09-09T02:10:32;1.55;;;1.00;;
42030;SDS011;27709;52.036;5.906;2022-09-09T02:13:01;2.72;;;1.10;;
42030;SDS011;27709;52.036;5.906;2022-09-09T02:15:52;2.20;;;1.40;;
42030;SDS011;27709;52.036;5.906;2022-09-09T02:18:27;3.20;;;1.25;;
42030;SDS011;27709;52.036;5.906;2022-09-09T02:21:00;4.85;;;1.30;;
42030;SDS011;27709;52.036;5.906;2022-09-09T02:23:28;3.38;;;1.17;;
42030;SDS011;27709;52.036;5.906;2022-09-09T02:26:00;3.00;;;1.08;;
42030;SDS011;27709;52.036;5.906;2022-09-09T02:28:27;3.53;;;1.33;;
42030;SDS011;27709;52.036;5.906;2022-09-09T02:30:55;2.45;;;1.10;;
42030;SDS011;27709;52.036;5.906;2022-09-09T02:33:23;3.70;;;1.10;;
42030;SDS011;27709;52.036;5.906;2022-09-09T02:35:52;1.75;;;1.23;;
42030;SDS011;27709;52.036;5.906;2022-09-09T02:38:21;2.90;;;1.48;;
42030;SDS011;27709;52.036;5.906;2022-09-09T02:40:51;2.15;;;1.00;;
42030;SDS011;27709;52.036;5.906;2022-09-09T02:43:17;3.45;;;1.10;;
42030;SDS011;27709;52.036;5.906;2022-09-09T02:48:50;3.25;;;1.40;;
42030;SDS011;27709;52.036;5.906;2022-09-09T02:51:33;2.50;;;1.20;;
42030;SDS011;27709;52.036;5.906;2022-09-09T02:54:16;4.40;;;1.45;;
42030;SDS011;27709;52.036;5.906;2022-09-09T02:56:56;2.53;;;1.17;;
42030;SDS011;27709;52.036;5.906;2022-09-09T02:59:44;1.95;;;1.05;;
42030;SDS011;27709;52.036;5.906;2022-09-09T03:02:10;3.03;;;1.10;;
42030;SDS011;27709;52.036;5.906;2022-09-09T03:04:37;3.35;;;1.30;;
42030;SDS011;27709;52.036;5.906;2022-09-09T03:07:05;3.20;;;1.30;;
42030;SDS011;27709;52.036;5.906;2022-09-09T03:09:31;3.35;;;1.30;;
42030;SDS011;27709;52.036;5.906;2022-09-09T03:11:57;2.35;;;1.20;;
42030;SDS011;27709;52.036;5.906;2022-09-09T03:14:24;2.38;;;1.23;;
42030;SDS011;27709;52.036;5.906;2022-09-09T03:16:53;3.13;;;1.20;;
42030;SDS011;27709;52.036;5.906;2022-09-09T03:19:19;2.00;;;1.17;;
42030;SDS011;27709;52.036;5.906;2022-09-09T03:21:45;2.92;;;1.33;;
42030;SDS011;27709;52.036;5.906;2022-09-09T03:24:11;2.33;;;1.45;;
42030;SDS011;27709;52.036;5.906;2022-09-09T03:26:39;2.80;;;1.10;;
42030;SDS011;27709;52.036;5.906;2022-09-09T03:29:06;2.33;;;1.48;;
42030;SDS011;27709;52.036;5.906;2022-09-09T03:31:32;2.10;;;1.30;;
42030;SDS011;27709;52.036;5.906;2022-09-09T03:34:02;2.20;;;1.13;;
42030;SDS011;27709;52.036;5.906;2022-09-09T03:36:28;2.80;;;1.60;;
42030;SDS011;27709;52.036;5.906;2022-09-09T03:38:54;3.03;;;1.25;;
42030;SDS011;27709;52.036;5.906;2022-09-09T03:41:21;3.28;;;1.50;;
42030;SDS011;27709;52.036;5.906;2022-09-09T03:43:48;3.35;;;1.10;;
42030;SDS011;27709;52.036;5.906;2022-09-09T03:46:17;3.90;;;1.17;;
42030;SDS011;27709;52.036;5.906;2022-09-09T03:48:43;2.97;;;1.42;;
42030;SDS011;27709;52.036;5.906;2022-09-09T03:51:09;3.05;;;1.10;;
42030;SDS011;27709;52.036;5.906;2022-09-09T03:53:35;4.53;;;1.67;;
42030;SDS011;27709;52.036;5.906;2022-09-09T03:56:03;2.70;;;1.67;;
42030;SDS011;27709;52.036;5.906;2022-09-09T03:58:31;2.55;;;1.42;;
42030;SDS011;27709;52.036;5.906;2022-09-09T04:01:05;2.70;;;1.10;;
42030;SDS011;27709;52.036;5.906;2022-09-09T04:03:34;2.60;;;1.75;;
42030;SDS011;27709;52.036;5.906;2022-09-09T04:06:02;2.95;;;1.75;;
42030;SDS011;27709;52.036;5.906;2022-09-09T04:08:29;4.25;;;1.40;;
42030;SDS011;27709;52.036;5.906;2022-09-09T04:10:58;3.38;;;1.67;;
42030;SDS011;27709;52.036;5.906;2022-09-09T04:13:25;2.25;;;1.20;;
42030;SDS011;27709;52.036;5.906;2022-09-09T04:15:53;4.78;;;1.75;;
42030;SDS011;27709;52.036;5.906;2022-09-09T04:18:22;5.82;;;2.40;;
42030;SDS011;27709;52.036;5.906;2022-09-09T04:20:49;3.72;;;1.50;;
42030;SDS011;27709;52.036;5.906;2022-09-09T04:23:15;3.60;;;1.92;;
42030;SDS011;27709;52.036;5.906;2022-09-09T04:25:45;2.58;;;1.40;;
42030;SDS011;27709;52.036;5.906;2022-09-09T04:28:12;3.25;;;1.45;;
42030;SDS011;27709;52.036;5.906;2022-09-09T04:30:38;3.60;;;1.45;;
42030;SDS011;27709;52.036;5.906;2022-09-09T04:33:05;4.07;;;1.50;;
42030;SDS011;27709;52.036;5.906;2022-09-09T04:35:31;3.35;;;1.50;;
42030;SDS011;27709;52.036;5.906;2022-09-09T04:37:57;4.00;;;1.70;;
42030;SDS011;27709;52.036;5.906;2022-09-09T04:40:23;2.88;;;1.50;;
42030;SDS011;27709;52.036;5.906;2022-09-09T04:42:49;4.00;;;1.45;;
42030;SDS011;27709;52.036;5.906;2022-09-09T04:45:17;4.53;;;1.77;;
42030;SDS011;27709;52.036;5.906;2022-09-09T04:47:43;4.35;;;1.70;;
42030;SDS011;27709;52.036;5.906;2022-09-09T04:50:09;4.10;;;1.70;;
42030;SDS011;27709;52.036;5.906;2022-09-09T04:52:35;3.10;;;1.52;;
42030;SDS011;27709;52.036;5.906;2022-09-09T04:55:01;4.00;;;1.70;;
42030;SDS011;27709;52.036;5.906;2022-09-09T04:57:26;3.65;;;1.80;;
42030;SDS011;27709;52.036;5.906;2022-09-09T04:59:54;4.13;;;1.45;;
42030;SDS011;27709;52.036;5.906;2022-09-09T05:02:20;3.92;;;1.40;;
42030;SDS011;27709;52.036;5.906;2022-09-09T05:04:45;3.97;;;1.63;;
42030;SDS011;27709;52.036;5.906;2022-09-09T05:07:11;3.60;;;1.60;;
42030;SDS011;27709;52.036;5.906;2022-09-09T05:09:36;4.18;;;1.50;;
42030;SDS011;27709;52.036;5.906;2022-09-09T05:12:02;6.07;;;1.95;;
42030;SDS011;27709;52.036;5.906;2022-09-09T05:14:28;4.55;;;1.80;;
42030;SDS011;27709;52.036;5.906;2022-09-09T05:16:54;3.92;;;1.60;;
42030;SDS011;27709;52.036;5.906;2022-09-09T05:19:21;4.10;;;1.92;;
42030;SDS011;27709;52.036;5.906;2022-09-09T05:21:46;6.78;;;2.10;;
42030;SDS011;27709;52.036;5.906;2022-09-09T05:24:12;5.10;;;1.60;;
42030;SDS011;27709;52.036;5.906;2022-09-09T05:26:37;4.50;;;1.50;;
42030;SDS011;27709;52.036;5.906;2022-09-09T05:29:03;5.10;;;2.03;;
42030;SDS011;27709;52.036;5.906;2022-09-09T05:31:29;2.95;;;1.60;;
42030;SDS011;27709;52.036;5.906;2022-09-09T05:33:55;5.32;;;1.60;;
42030;SDS011;27709;52.036;5.906;2022-09-09T05:36:21;5.07;;;1.70;;
42030;SDS011;27709;52.036;5.906;2022-09-09T05:38:48;4.78;;;1.73;;
42030;SDS011;27709;52.036;5.906;2022-09-09T05:41:14;3.67;;;1.45;;
42030;SDS011;27709;52.036;5.906;2022-09-09T05:43:41;5.72;;;1.48;;
42030;SDS011;27709;52.036;5.906;2022-09-09T05:46:16;4.68;;;1.40;;
42030;SDS011;27709;52.036;5.906;2022-09-09T05:48:44;4.65;;;1.95;;
42030;SDS011;27709;52.036;5.906;2022-09-09T05:51:12;5.30;;;1.90;;
42030;SDS011;27709;52.036;5.906;2022-09-09T05:53:43;4.35;;;1.77;;
42030;SDS011;27709;52.036;5.906;2022-09-09T05:56:10;3.67;;;1.58;;
42030;SDS011;27709;52.036;5.906;2022-09-09T05:58:41;3.88;;;1.65;;
42030;SDS011;27709;52.036;5.906;2022-09-09T06:01:10;6.95;;;1.73;;
42030;SDS011;27709;52.036;5.906;2022-09-09T06:03:41;4.20;;;1.50;;
42030;SDS011;27709;52.036;5.906;2022-09-09T06:06:09;5.05;;;1.40;;
42030;SDS011;27709;52.036;5.906;2022-09-09T06:08:37;4.78;;;1.60;;
42030;SDS011;27709;52.036;5.906;2022-09-09T06:11:05;8.65;;;2.17;;
42030;SDS011;27709;52.036;5.906;2022-09-09T06:13:33;5.93;;;1.70;;
42030;SDS011;27709;52.036;5.906;2022-09-09T06:15:58;7.95;;;1.85;;
42030;SDS011;27709;52.036;5.906;2022-09-09T06:18:25;6.95;;;2.05;;
42030;SDS011;27709;52.036;5.906;2022-09-09T06:20:58;6.38;;;1.70;;
42030;SDS011;27709;52.036;5.906;2022-09-09T06:23:31;4.30;;;1.60;;
42030;SDS011;27709;52.036;5.906;2022-09-09T06:26:05;5.10;;;1.70;;
42030;SDS011;27709;52.036;5.906;2022-09-09T06:28:35;7.50;;;2.22;;
42030;SDS011;27709;52.036;5.906;2022-09-09T06:31:11;5.50;;;1.95;;
42030;SDS011;27709;52.036;5.906;2022-09-09T06:33:39;5.78;;;1.75;;
42030;SDS011;27709;52.036;5.906;2022-09-09T06:36:06;6.18;;;1.88;;
42030;SDS011;27709;52.036;5.906;2022-09-09T06:38:35;5.07;;;1.60;;
42030;SDS011;27709;52.036;5.906;2022-09-09T06:41:24;3.88;;;1.40;;
42030;SDS011;27709;52.036;5.906;2022-09-09T06:43:49;4.70;;;1.45;;
42030;SDS011;27709;52.036;5.906;2022-09-09T06:46:17;4.30;;;1.63;;
42030;SDS011;27709;52.036;5.906;2022-09-09T06:48:53;3.65;;;1.17;;
42030;SDS011;27709;52.036;5.906;2022-09-09T06:51:25;5.15;;;1.40;;
42030;SDS011;27709;52.036;5.906;2022-09-09T06:53:56;4.72;;;1.50;;
42030;SDS011;27709;52.036;5.906;2022-09-09T06:56:37;6.85;;;1.58;;
42030;SDS011;27709;52.036;5.906;2022-09-09T06:59:08;3.55;;;1.17;;
42030;SDS011;27709;52.036;5.906;2022-09-09T07:01:35;5.45;;;1.52;;
42030;SDS011;27709;52.036;5.906;2022-09-09T07:04:04;7.20;;;1.30;;
42030;SDS011;27709;52.036;5.906;2022-09-09T07:06:38;6.75;;;1.35;;
42030;SDS011;27709;52.036;5.906;2022-09-09T07:09:12;4.95;;;1.40;;
42030;SDS011;27709;52.036;5.906;2022-09-09T07:11:47;6.05;;;1.52;;
42030;SDS011;27709;52.036;5.906;2022-09-09T07:14:31;4.18;;;1.20;;
42030;SDS011;27709;52.036;5.906;2022-09-09T07:16:57;7.47;;;1.40;;
42030;SDS011;27709;52.036;5.906;2022-09-09T07:19:23;6.00;;;1.27;;
42030;SDS011;27709;52.036;5.906;2022-09-09T07:21:48;6.28;;;1.55;;
42030;SDS011;27709;52.036;5.906;2022-09-09T07:24:14;7.05;;;1.67;;
42030;SDS011;27709;52.036;5.906;2022-09-09T07:26:55;4.40;;;1.38;;
42030;SDS011;27709;52.036;5.906;2022-09-09T07:29:29;5.40;;;1.15;;
42030;SDS011;27709;52.036;5.906;2022-09-09T07:31:55;6.15;;;1.50;;
42030;SDS011;27709;52.036;5.906;2022-09-09T07:34:21;4.57;;;1.20;;
42030;SDS011;27709;52.036;5.906;2022-09-09T07:36:46;3.47;;;0.93;;
42030;SDS011;27709;52.036;5.906;2022-09-09T07:39:18;4.82;;;1.08;;
42030;SDS011;27709;52.036;5.906;2022-09-09T07:41:57;3.85;;;1.13;;
42030;SDS011;27709;52.036;5.906;2022-09-09T07:44:24;6.57;;;1.50;;
42030;SDS011;27709;52.036;5.906;2022-09-09T07:46:51;6.80;;;1.50;;
42030;SDS011;27709;52.036;5.906;2022-09-09T07:49:17;4.22;;;1.02;;
42030;SDS011;27709;52.036;5.906;2022-09-09T07:51:45;6.97;;;1.20;;
42030;SDS011;27709;52.036;5.906;2022-09-09T07:54:33;6.70;;;1.58;;
42030;SDS011;27709;52.036;5.906;2022-09-09T07:57:19;5.32;;;1.00;;
42030;SDS011;27709;52.036;5.906;2022-09-09T07:59:45;3.13;;;1.00;;
42030;SDS011;27709;52.036;5.906;2022-09-09T08:02:11;5.15;;;1.10;;
42030;SDS011;27709;52.036;5.906;2022-09-09T08:04:56;3.80;;;1.20;;
42030;SDS011;27709;52.036;5.906;2022-09-09T08:07:44;6.30;;;1.35;;
42030;SDS011;27709;52.036;5.906;2022-09-09T08:10:09;5.78;;;1.42;;
42030;SDS011;27709;52.036;5.906;2022-09-09T08:12:35;6.40;;;1.20;;
42030;SDS011;27709;52.036;5.906;2022-09-09T08:15:03;5.05;;;1.13;;
42030;SDS011;27709;52.036;5.906;2022-09-09T08:17:42;4.25;;;1.27;;
42030;SDS011;27709;52.036;5.906;2022-09-09T08:20:11;5.93;;;1.20;;
42030;SDS011;27709;52.036;5.906;2022-09-09T08:22:46;5.97;;;1.25;;
42030;SDS011;27709;52.036;5.906;2022-09-09T08:25:16;6.05;;;1.10;;
42030;SDS011;27709;52.036;5.906;2022-09-09T08:27:42;4.50;;;1.20;;
42030;SDS011;27709;52.036;5.906;2022-09-09T08:30:08;7.78;;;1.02;;
42030;SDS011;27709;52.036;5.906;2022-09-09T08:32:46;4.53;;;1.30;;
42030;SDS011;27709;52.036;5.906;2022-09-09T08:35:19;5.88;;;1.20;;
42030;SDS011;27709;52.036;5.906;2022-09-09T08:37:48;6.50;;;1.33;;
42030;SDS011;27709;52.036;5.906;2022-09-09T08:40:25;5.35;;;1.00;;
42030;SDS011;27709;52.036;5.906;2022-09-09T08:43:09;4.65;;;1.25;;
42030;SDS011;27709;52.036;5.906;2022-09-09T08:46:14;6.53;;;1.15;;
42030;SDS011;27709;52.036;5.906;2022-09-09T08:52:19;4.45;;;1.30;;
42030;SDS011;27709;52.036;5.906;2022-09-09T08:54:57;5.22;;;1.40;;
42030;SDS011;27709;52.036;5.906;2022-09-09T09:07:19;4.53;;;1.10;;
42030;SDS011;27709;52.036;5.906;2022-09-09T09:10:06;6.03;;;1.05;;
42030;SDS011;27709;52.036;5.906;2022-09-09T09:12:43;5.82;;;1.50;;
42030;SDS011;27709;52.036;5.906;2022-09-09T09:15:31;6.80;;;1.08;;
42030;SDS011;27709;52.036;5.906;2022-09-09T09:18:03;5.60;;;1.15;;
42030;SDS011;27709;52.036;5.906;2022-09-09T09:23:40;5.22;;;0.93;;
42030;SDS011;27709;52.036;5.906;2022-09-09T09:26:29;3.97;;;0.90;;
42030;SDS011;27709;52.036;5.906;2022-09-09T09:29:01;4.75;;;0.77;;
42030;SDS011;27709;52.036;5.906;2022-09-09T09:34:16;6.57;;;0.98;;
42030;SDS011;27709;52.036;5.906;2022-09-09T09:36:46;4.55;;;0.95;;
42030;SDS011;27709;52.036;5.906;2022-09-09T09:39:27;6.70;;;0.93;;
42030;SDS011;27709;52.036;5.906;2022-09-09T09:41:54;5.68;;;0.80;;
42030;SDS011;27709;52.036;5.906;2022-09-09T09:44:22;7.53;;;1.20;;
42030;SDS011;27709;52.036;5.906;2022-09-09T09:49:55;6.50;;;0.85;;
42030;SDS011;27709;52.036;5.906;2022-09-09T09:52:25;3.45;;;0.77;;
42030;SDS011;27709;52.036;5.906;2022-09-09T09:54:53;3.77;;;0.80;;
42030;SDS011;27709;52.036;5.906;2022-09-09T09:57:24;3.60;;;0.80;;
42030;SDS011;27709;52.036;5.906;2022-09-09T10:00:04;6.13;;;0.90;;
42030;SDS011;27709;52.036;5.906;2022-09-09T10:02:40;3.17;;;0.70;;
42030;SDS011;27709;52.036;5.906;2022-09-09T10:08:08;6.03;;;1.00;;
42030;SDS011;27709;52.036;5.906;2022-09-09T10:10:48;6.35;;;1.02;;
42030;SDS011;27709;52.036;5.906;2022-09-09T10:19:59;5.10;;;0.98;;
42030;SDS011;27709;52.036;5.906;2022-09-09T10:22:44;3.72;;;0.93;;
42030;SDS011;27709;52.036;5.906;2022-09-09T10:25:33;5.95;;;0.98;;
42030;SDS011;27709;52.036;5.906;2022-09-09T10:37:57;4.82;;;0.70;;
42030;SDS011;27709;52.036;5.906;2022-09-09T10:40:04;4.22;;;0.88;;
42030;SDS011;27709;52.036;5.906;2022-09-09T10:42:39;5.85;;;0.90;;
42030;SDS011;27709;52.036;5.906;2022-09-09T10:45:17;5.97;;;0.90;;
42030;SDS011;27709;52.036;5.906;2022-09-09T10:56:36;2.97;;;0.85;;
42030;SDS011;27709;52.036;5.906;2022-09-09T10:59:15;4.88;;;0.80;;
42030;SDS011;27709;52.036;5.906;2022-09-09T11:06:57;3.58;;;0.80;;
42030;SDS011;27709;52.036;5.906;2022-09-09T11:09:31;5.95;;;0.85;;
42030;SDS011;27709;52.036;5.906;2022-09-09T11:12:01;3.72;;;0.90;;
42030;SDS011;27709;52.036;5.906;2022-09-09T11:14:36;5.05;;;0.85;;
42030;SDS011;27709;52.036;5.906;2022-09-09T11:17:23;4.47;;;1.02;;
42030;SDS011;27709;52.036;5.906;2022-09-09T11:20:29;4.30;;;0.75;;
42030;SDS011;27709;52.036;5.906;2022-09-09T11:23:02;5.72;;;1.00;;
42030;SDS011;27709;52.036;5.906;2022-09-09T11:25:45;5.80;;;0.80;;
42030;SDS011;27709;52.036;5.906;2022-09-09T11:28:24;3.22;;;0.90;;
42030;SDS011;27709;52.036;5.906;2022-09-09T11:34:23;5.75;;;0.98;;
42030;SDS011;27709;52.036;5.906;2022-09-09T11:40:41;4.38;;;1.10;;
42030;SDS011;27709;52.036;5.906;2022-09-09T11:45:39;4.43;;;0.95;;
42030;SDS011;27709;52.036;5.906;2022-09-09T11:48:57;5.72;;;1.20;;
42030;SDS011;27709;52.036;5.906;2022-09-09T11:53:35;4.18;;;1.00;;
42030;SDS011;27709;52.036;5.906;2022-09-09T12:02:32;4.70;;;0.80;;
42030;SDS011;27709;52.036;5.906;2022-09-09T12:05:11;2.78;;;0.82;;
42030;SDS011;27709;52.036;5.906;2022-09-09T12:07:40;5.88;;;0.80;;
42030;SDS011;27709;52.036;5.906;2022-09-09T12:10:22;4.18;;;0.88;;
42030;SDS011;27709;52.036;5.906;2022-09-09T12:13:13;4.18;;;0.70;;
42030;SDS011;27709;52.036;5.906;2022-09-09T12:15:52;4.03;;;0.88;;
42030;SDS011;27709;52.036;5.906;2022-09-09T12:18:39;5.15;;;0.90;;
42030;SDS011;27709;52.036;5.906;2022-09-09T12:21:27;4.00;;;0.65;;
42030;SDS011;27709;52.036;5.906;2022-09-09T12:24:19;3.72;;;0.70;;
42030;SDS011;27709;52.036;5.906;2022-09-09T12:27:05;3.47;;;0.63;;
42030;SDS011;27709;52.036;5.906;2022-09-09T12:30:01;6.70;;;1.02;;
42030;SDS011;27709;52.036;5.906;2022-09-09T12:32:58;4.45;;;0.90;;
42030;SDS011;27709;52.036;5.906;2022-09-09T12:35:27;4.93;;;0.88;;
42030;SDS011;27709;52.036;5.906;2022-09-09T12:37:58;4.45;;;0.80;;
42030;SDS011;27709;52.036;5.906;2022-09-09T12:40:28;3.10;;;0.70;;
42030;SDS011;27709;52.036;5.906;2022-09-09T12:42:57;4.10;;;0.75;;
42030;SDS011;27709;52.036;5.906;2022-09-09T12:45:29;5.25;;;0.70;;
42030;SDS011;27709;52.036;5.906;2022-09-09T12:48:10;4.70;;;0.90;;
42030;SDS011;27709;52.036;5.906;2022-09-09T12:53:34;4.32;;;0.70;;
42030;SDS011;27709;52.036;5.906;2022-09-09T12:56:05;6.40;;;0.90;;
42030;SDS011;27709;52.036;5.906;2022-09-09T12:59:17;3.67;;;0.80;;
42030;SDS011;27709;52.036;5.906;2022-09-09T13:01:31;3.75;;;0.80;;
42030;SDS011;27709;52.036;5.906;2022-09-09T13:04:15;4.40;;;0.82;;
42030;SDS011;27709;52.036;5.906;2022-09-09T13:06:50;2.60;;;0.70;;
42030;SDS011;27709;52.036;5.906;2022-09-09T13:09:20;3.33;;;0.63;;
42030;SDS011;27709;52.036;5.906;2022-09-09T13:11:52;4.30;;;0.98;;
42030;SDS011;27709;52.036;5.906;2022-09-09T13:14:29;2.03;;;0.57;;
42030;SDS011;27709;52.036;5.906;2022-09-09T13:17:05;3.47;;;0.93;;
42030;SDS011;27709;52.036;5.906;2022-09-09T13:19:37;3.72;;;0.68;;
42030;SDS011;27709;52.036;5.906;2022-09-09T13:22:20;4.10;;;0.80;;
42030;SDS011;27709;52.036;5.906;2022-09-09T13:31:02;2.88;;;0.70;;
42030;SDS011;27709;52.036;5.906;2022-09-09T13:33:36;3.40;;;0.75;;
42030;SDS011;27709;52.036;5.906;2022-09-09T13:36:06;3.63;;;0.73;;
42030;SDS011;27709;52.036;5.906;2022-09-09T13:39:16;2.85;;;0.80;;
42030;SDS011;27709;52.036;5.906;2022-09-09T13:41:30;3.60;;;0.88;;
42030;SDS011;27709;52.036;5.906;2022-09-09T13:43:58;3.25;;;0.82;;
42030;SDS011;27709;52.036;5.906;2022-09-09T13:48:56;4.10;;;0.70;;
42030;SDS011;27709;52.036;5.906;2022-09-09T13:51:29;4.25;;;1.20;;
42030;SDS011;27709;52.036;5.906;2022-09-09T13:54:00;4.68;;;0.88;;
42030;SDS011;27709;52.036;5.906;2022-09-09T13:56:26;2.15;;;0.68;;
42030;SDS011;27709;52.036;5.906;2022-09-09T13:58:52;3.45;;;0.80;;
42030;SDS011;27709;52.036;5.906;2022-09-09T14:01:17;2.80;;;0.90;;
42030;SDS011;27709;52.036;5.906;2022-09-09T14:03:43;4.28;;;0.80;;
42030;SDS011;27709;52.036;5.906;2022-09-09T14:06:09;4.45;;;1.00;;
42030;SDS011;27709;52.036;5.906;2022-09-09T14:08:35;2.33;;;0.68;;
42030;SDS011;27709;52.036;5.906;2022-09-09T14:11:05;3.40;;;1.02;;
42030;SDS011;27709;52.036;5.906;2022-09-09T14:13:35;5.60;;;0.80;;
42030;SDS011;27709;52.036;5.906;2022-09-09T14:16:06;2.80;;;0.77;;
42030;SDS011;27709;52.036;5.906;2022-09-09T14:18:32;3.90;;;0.90;;
42030;SDS011;27709;52.036;5.906;2022-09-09T14:20:58;4.55;;;1.10;;
42030;SDS011;27709;52.036;5.906;2022-09-09T14:23:24;3.63;;;0.80;;
42030;SDS011;27709;52.036;5.906;2022-09-09T14:25:50;4.35;;;0.63;;
42030;SDS011;27709;52.036;5.906;2022-09-09T14:28:20;2.72;;;0.55;;
42030;SDS011;27709;52.036;5.906;2022-09-09T14:30:50;2.17;;;0.60;;
42030;SDS011;27709;52.036;5.906;2022-09-09T14:33:19;2.63;;;0.50;;
42030;SDS011;27709;52.036;5.906;2022-09-09T14:35:46;2.03;;;0.68;;
42030;SDS011;27709;52.036;5.906;2022-09-09T14:38:11;2.13;;;0.50;;
42030;SDS011;27709;52.036;5.906;2022-09-09T14:40:37;4.60;;;0.70;;
42030;SDS011;27709;52.036;5.906;2022-09-09T14:43:03;3.55;;;0.73;;
42030;SDS011;27709;52.036;5.906;2022-09-09T14:45:30;2.17;;;0.80;;
42030;SDS011;27709;52.036;5.906;2022-09-09T14:47:59;3.88;;;0.63;;
42030;SDS011;27709;52.036;5.906;2022-09-09T14:50:31;2.63;;;0.80;;
42030;SDS011;27709;52.036;5.906;2022-09-09T14:53:08;4.13;;;1.10;;
42030;SDS011;27709;52.036;5.906;2022-09-09T14:55:35;4.75;;;0.90;;
42030;SDS011;27709;52.036;5.906;2022-09-09T14:58:01;2.25;;;0.70;;
42030;SDS011;27709;52.036;5.906;2022-09-09T15:00:40;2.85;;;0.63;;
42030;SDS011;27709;52.036;5.906;2022-09-09T15:03:13;3.65;;;0.90;;
42030;SDS011;27709;52.036;5.906;2022-09-09T15:05:42;4.53;;;1.15;;
42030;SDS011;27709;52.036;5.906;2022-09-09T15:08:08;2.75;;;1.10;;
42030;SDS011;27709;52.036;5.906;2022-09-09T15:10:33;3.00;;;0.90;;
42030;SDS011;27709;52.036;5.906;2022-09-09T15:13:08;3.95;;;0.82;;
42030;SDS011;27709;52.036;5.906;2022-09-09T15:15:37;2.53;;;0.90;;
42030;SDS011;27709;52.036;5.906;2022-09-09T15:18:02;2.33;;;0.70;;
42030;SDS011;27709;52.036;5.906;2022-09-09T15:20:30;3.30;;;0.80;;
42030;SDS011;27709;52.036;5.906;2022-09-09T15:22:59;2.58;;;0.80;;
42030;SDS011;27709;52.036;5.906;2022-09-09T15:25:25;4.88;;;0.98;;
42030;SDS011;27709;52.036;5.906;2022-09-09T15:27:53;3.00;;;0.80;;
42030;SDS011;27709;52.036;5.906;2022-09-09T15:30:38;4.25;;;1.10;;
42030;SDS011;27709;52.036;5.906;2022-09-09T15:33:08;3.55;;;0.88;;
42030;SDS011;27709;52.036;5.906;2022-09-09T15:35:33;3.30;;;0.65;;
42030;SDS011;27709;52.036;5.906;2022-09-09T15:38:01;4.60;;;0.80;;
42030;SDS011;27709;52.036;5.906;2022-09-09T15:43:12;2.30;;;0.85;;
42030;SDS011;27709;52.036;5.906;2022-09-09T15:45:45;3.47;;;0.90;;
42030;SDS011;27709;52.036;5.906;2022-09-09T15:48:15;4.53;;;1.00;;
42030;SDS011;27709;52.036;5.906;2022-09-09T15:51:04;3.13;;;0.90;;
42030;SDS011;27709;52.036;5.906;2022-09-09T15:53:35;3.83;;;0.93;;
42030;SDS011;27709;52.036;5.906;2022-09-09T15:56:10;3.97;;;1.00;;
42030;SDS011;27709;52.036;5.906;2022-09-09T15:58:36;3.10;;;0.95;;
42030;SDS011;27709;52.036;5.906;2022-09-09T16:01:02;3.78;;;0.93;;
42030;SDS011;27709;52.036;5.906;2022-09-09T16:03:29;2.50;;;1.02;;
42030;SDS011;27709;52.036;5.906;2022-09-09T16:05:58;3.92;;;1.23;;
42030;SDS011;27709;52.036;5.906;2022-09-09T16:08:30;5.63;;;1.30;;
42030;SDS011;27709;52.036;5.906;2022-09-09T16:11:18;3.17;;;1.00;;
42030;SDS011;27709;52.036;5.906;2022-09-09T16:13:49;4.53;;;1.77;;
42030;SDS011;27709;52.036;5.906;2022-09-09T16:16:18;3.70;;;0.90;;
42030;SDS011;27709;52.036;5.906;2022-09-09T16:18:47;3.63;;;0.90;;
42030;SDS011;27709;52.036;5.906;2022-09-09T16:21:20;1.60;;;0.50;;
42030;SDS011;27709;52.036;5.906;2022-09-09T16:23:49;1.42;;;0.50;;
42030;SDS011;27709;52.036;5.906;2022-09-09T16:26:16;2.88;;;0.70;;
42030;SDS011;27709;52.036;5.906;2022-09-09T16:28:42;1.38;;;0.47;;
42030;SDS011;27709;52.036;5.906;2022-09-09T16:31:15;1.33;;;0.68;;
42030;SDS011;27709;52.036;5.906;2022-09-09T16:33:46;2.20;;;0.80;;
42030;SDS011;27709;52.036;5.906;2022-09-09T16:36:22;2.60;;;0.75;;
42030;SDS011;27709;52.036;5.906;2022-09-09T16:39:03;2.60;;;0.70;;
42030;SDS011;27709;52.036;5.906;2022-09-09T16:41:31;2.85;;;0.70;;
42030;SDS011;27709;52.036;5.906;2022-09-09T16:43:58;1.83;;;0.60;;
42030;SDS011;27709;52.036;5.906;2022-09-09T16:46:26;3.45;;;1.00;;
42030;SDS011;27709;52.036;5.906;2022-09-09T16:48:59;2.42;;;1.00;;
42030;SDS011;27709;52.036;5.906;2022-09-09T16:51:30;2.60;;;0.77;;
42030;SDS011;27709;52.036;5.906;2022-09-09T16:53:58;3.17;;;1.13;;
42030;SDS011;27709;52.036;5.906;2022-09-09T16:56:25;4.03;;;1.48;;
42030;SDS011;27709;52.036;5.906;2022-09-09T16:58:58;5.10;;;1.10;;
42030;SDS011;27709;52.036;5.906;2022-09-09T17:01:25;5.00;;;1.30;;
42030;SDS011;27709;52.036;5.906;2022-09-09T17:03:54;3.40;;;1.05;;
42030;SDS011;27709;52.036;5.906;2022-09-09T17:06:21;2.80;;;1.02;;
42030;SDS011;27709;52.036;5.906;2022-09-09T17:08:47;3.95;;;1.27;;
42030;SDS011;27709;52.036;5.906;2022-09-09T17:11:18;3.55;;;1.10;;
42030;SDS011;27709;52.036;5.906;2022-09-09T17:13:44;3.88;;;1.30;;
42030;SDS011;27709;52.036;5.906;2022-09-09T17:16:11;2.17;;;1.13;;
42030;SDS011;27709;52.036;5.906;2022-09-09T17:18:38;3.30;;;1.20;;
42030;SDS011;27709;52.036;5.906;2022-09-09T17:21:05;3.42;;;1.35;;
42030;SDS011;27709;52.036;5.906;2022-09-09T17:23:40;3.42;;;1.38;;
42030;SDS011;27709;52.036;5.906;2022-09-09T17:26:07;3.47;;;1.40;;
42030;SDS011;27709;52.036;5.906;2022-09-09T17:28:37;2.50;;;1.02;;
42030;SDS011;27709;52.036;5.906;2022-09-09T17:31:04;3.10;;;1.00;;